createdAt,value
2023-09-27T00:00:32.831Z,15.40
2023-09-27T00:03:32.735Z,14.90
2023-09-27T00:06:01.823Z,14.80
2023-09-27T00:08:30.760Z,14.40
2023-09-27T00:10:59.981Z,15.00
2023-09-27T00:13:29.103Z,16.10
2023-09-27T00:15:58.153Z,15.60
2023-09-27T00:18:27.283Z,14.40
2023-09-27T00:20:56.118Z,14.20
2023-09-27T00:23:25.174Z,11.40
2023-09-27T00:25:54.086Z,12.40
2023-09-27T00:28:22.928Z,14.10
2023-09-27T00:30:52.274Z,13.60
2023-09-27T00:33:21.183Z,14.10
2023-09-27T00:35:50.529Z,13.90
2023-09-27T00:38:19.425Z,13.40
2023-09-27T00:40:48.822Z,12.20
2023-09-27T00:43:27.660Z,11.90
2023-09-27T00:46:03.674Z,11.20
2023-09-27T00:48:33.234Z,12.10
2023-09-27T00:51:02.909Z,12.50
2023-09-27T00:53:33.414Z,12.20
2023-09-27T00:56:02.805Z,11.90
2023-09-27T00:58:35.776Z,11.70
2023-09-27T01:01:04.848Z,13.10
2023-09-27T01:03:34.236Z,14.10
2023-09-27T01:06:03.904Z,14.00
2023-09-27T01:08:32.771Z,14.20
2023-09-27T01:11:03.767Z,13.40
2023-09-27T01:13:33.016Z,12.70
2023-09-27T01:16:03.025Z,13.40
2023-09-27T01:18:32.094Z,14.40
2023-09-27T01:21:01.860Z,14.70
2023-09-27T01:23:30.747Z,12.00
2023-09-27T01:26:01.297Z,13.20
2023-09-27T01:28:30.774Z,13.40
2023-09-27T01:30:59.678Z,11.50
2023-09-27T01:33:28.965Z,13.50
2023-09-27T01:35:58.902Z,14.20
2023-09-27T01:38:27.841Z,12.30
2023-09-27T01:40:56.956Z,13.00
2023-09-27T01:43:26.113Z,13.60
2023-09-27T01:45:54.909Z,13.70
2023-09-27T01:48:23.891Z,14.50
2023-09-27T01:50:52.716Z,15.70
2023-09-27T01:53:21.711Z,15.50
2023-09-27T01:55:50.680Z,15.00
2023-09-27T01:58:19.586Z,15.50
2023-09-27T02:00:48.466Z,15.30
2023-09-27T02:03:17.569Z,14.50
2023-09-27T02:05:46.662Z,13.90
2023-09-27T02:08:17.055Z,14.50
2023-09-27T02:10:46.024Z,15.10
2023-09-27T02:13:14.848Z,14.80
2023-09-27T02:15:43.747Z,14.70
2023-09-27T02:18:13.145Z,14.70
2023-09-27T02:20:45.854Z,14.50
2023-09-27T02:23:14.999Z,14.60
2023-09-27T02:25:43.894Z,13.40
2023-09-27T02:28:12.798Z,13.50
2023-09-27T02:30:41.750Z,14.50
2023-09-27T02:33:11.545Z,15.00
2023-09-27T02:35:40.347Z,14.50
2023-09-27T02:38:10.386Z,14.50
2023-09-27T02:40:39.270Z,14.50
2023-09-27T02:43:08.073Z,13.70
2023-09-27T02:45:37.440Z,13.70
2023-09-27T02:48:06.458Z,13.60
2023-09-27T02:50:35.324Z,13.90
2023-09-27T02:53:04.380Z,13.00
2023-09-27T02:55:34.648Z,13.40
2023-09-27T02:58:03.514Z,12.50
2023-09-27T03:00:34.844Z,12.40
2023-09-27T03:03:04.815Z,12.00
2023-09-27T03:05:36.893Z,12.50
2023-09-27T03:08:06.140Z,12.70
2023-09-27T03:10:40.027Z,13.10
2023-09-27T03:13:10.874Z,11.50
2023-09-27T03:15:39.880Z,12.80
2023-09-27T03:18:09.003Z,11.90
2023-09-27T03:20:37.873Z,12.60
2023-09-27T03:23:06.767Z,12.40
2023-09-27T03:25:35.656Z,13.40
2023-09-27T03:28:04.511Z,12.30
2023-09-27T03:30:33.396Z,12.50
2023-09-27T03:33:02.412Z,12.40
2023-09-27T03:35:31.332Z,13.50
2023-09-27T03:38:00.817Z,12.90
2023-09-27T03:40:29.772Z,13.50
2023-09-27T03:42:58.907Z,13.20
2023-09-27T03:45:27.773Z,12.20
2023-09-27T03:47:56.672Z,13.10
2023-09-27T03:50:25.643Z,12.90
2023-09-27T03:52:57.048Z,12.70
2023-09-27T03:55:26.341Z,12.70
2023-09-27T03:57:55.251Z,12.60
2023-09-27T04:00:24.899Z,13.80
2023-09-27T04:02:55.108Z,13.90
2023-09-27T04:05:26.818Z,13.10
2023-09-27T04:07:55.822Z,12.10
2023-09-27T04:10:25.977Z,11.90
2023-09-27T04:12:54.894Z,12.90
2023-09-27T04:15:24.185Z,11.50
2023-09-27T04:17:53.213Z,12.50
2023-09-27T04:20:23.049Z,11.50
2023-09-27T04:22:51.978Z,9.90
2023-09-27T04:25:21.315Z,10.90
2023-09-27T04:27:52.791Z,13.20
2023-09-27T04:30:23.436Z,11.90
2023-09-27T04:32:52.850Z,14.10
2023-09-27T04:35:22.699Z,15.70
2023-09-27T04:37:51.680Z,14.90
2023-09-27T04:40:20.628Z,14.30
2023-09-27T04:42:50.222Z,15.10
2023-09-27T04:45:19.178Z,14.90
2023-09-27T04:47:48.145Z,16.20
2023-09-27T04:50:17.598Z,16.60
2023-09-27T04:52:46.688Z,16.50
2023-09-27T04:55:16.431Z,15.80
2023-09-27T04:57:45.375Z,16.00
2023-09-27T05:00:21.073Z,16.00
2023-09-27T05:02:53.362Z,15.60
2023-09-27T05:05:22.581Z,15.10
2023-09-27T05:07:51.563Z,14.60
2023-09-27T05:10:20.378Z,16.60
2023-09-27T05:12:49.289Z,15.40
2023-09-27T05:15:18.323Z,15.30
2023-09-27T05:17:47.287Z,15.50
2023-09-27T05:20:19.910Z,15.40
2023-09-27T05:22:49.366Z,15.80
2023-09-27T05:25:18.278Z,16.70
2023-09-27T05:27:47.333Z,17.00
2023-09-27T05:30:17.382Z,16.30
2023-09-27T05:32:47.337Z,16.20
2023-09-27T05:35:16.463Z,16.70
2023-09-27T05:37:46.049Z,17.00
2023-09-27T05:40:14.983Z,17.10
2023-09-27T05:42:43.890Z,16.70
2023-09-27T05:45:13.575Z,17.50
2023-09-27T05:47:43.129Z,17.40
2023-09-27T05:50:15.471Z,16.40
2023-09-27T05:52:47.860Z,17.50
2023-09-27T05:55:17.454Z,16.60
2023-09-27T05:57:47.118Z,16.90
2023-09-27T06:00:36.448Z,17.70
2023-09-27T06:03:05.769Z,17.00
2023-09-27T06:05:34.757Z,17.50
2023-09-27T06:08:04.683Z,16.60
2023-09-27T06:10:33.587Z,16.60
2023-09-27T06:13:02.476Z,16.90
2023-09-27T06:15:34.292Z,16.00
2023-09-27T06:18:04.462Z,16.70
2023-09-27T06:20:33.896Z,16.20
2023-09-27T06:23:05.474Z,17.30
2023-09-27T06:25:36.466Z,15.90
2023-09-27T06:28:05.698Z,15.60
2023-09-27T06:30:34.520Z,16.10
2023-09-27T06:33:03.606Z,15.10
2023-09-27T06:35:33.459Z,14.50
2023-09-27T06:38:02.389Z,14.50
2023-09-27T06:40:31.206Z,15.20
2023-09-27T06:43:00.907Z,14.00
2023-09-27T06:45:30.146Z,15.20
2023-09-27T06:48:00.401Z,13.60
2023-09-27T06:50:29.490Z,13.90
2023-09-27T06:53:15.768Z,14.60
2023-09-27T06:55:47.742Z,14.20
2023-09-27T06:58:24.257Z,13.30
2023-09-27T07:00:53.849Z,14.40
2023-09-27T07:03:26.894Z,13.90
2023-09-27T07:05:56.091Z,13.60
2023-09-27T07:08:25.009Z,14.00
2023-09-27T07:10:53.900Z,13.90
2023-09-27T07:13:22.842Z,13.40
2023-09-27T07:15:52.098Z,14.50
2023-09-27T07:18:22.014Z,13.40
2023-09-27T07:20:55.361Z,14.10
2023-09-27T07:23:24.744Z,12.80
2023-09-27T07:25:53.946Z,12.50
2023-09-27T07:28:23.099Z,12.40
2023-09-27T07:30:54.130Z,12.40
2023-09-27T07:33:23.206Z,12.80
2023-09-27T07:35:53.457Z,12.30
2023-09-27T07:38:22.408Z,13.00
2023-09-27T07:40:51.802Z,12.30
2023-09-27T07:43:20.843Z,11.40
2023-09-27T07:45:49.930Z,11.90
2023-09-27T07:48:22.786Z,11.90
2023-09-27T07:50:54.114Z,12.60
2023-09-27T07:53:23.930Z,12.30
2023-09-27T07:55:54.513Z,11.40
2023-09-27T07:58:23.451Z,11.40
2023-09-27T08:00:52.576Z,11.20
2023-09-27T08:03:23.308Z,10.90
2023-09-27T08:05:52.573Z,11.60
2023-09-27T08:08:22.843Z,11.00
2023-09-27T08:10:52.961Z,10.50
2023-09-27T08:13:21.892Z,10.30
2023-09-27T08:15:50.897Z,10.30
2023-09-27T08:18:19.925Z,9.50
2023-09-27T08:20:48.943Z,9.10
2023-09-27T08:23:18.082Z,9.00
2023-09-27T08:25:46.957Z,9.20
2023-09-27T08:28:17.635Z,9.00
2023-09-27T08:30:46.862Z,9.40
2023-09-27T08:33:15.798Z,9.70
2023-09-27T08:35:44.795Z,8.50
2023-09-27T08:38:13.757Z,8.70
2023-09-27T08:40:43.851Z,8.60
2023-09-27T08:43:13.324Z,8.70
2023-09-27T08:45:43.676Z,8.30
2023-09-27T08:48:17.832Z,7.40
2023-09-27T08:50:47.657Z,7.90
2023-09-27T08:53:17.409Z,6.50
2023-09-27T08:55:51.193Z,6.30
2023-09-27T08:58:26.810Z,5.80
2023-09-27T09:00:56.201Z,5.50
2023-09-27T09:03:26.610Z,5.60
2023-09-27T09:05:57.033Z,4.70
2023-09-27T09:08:42.280Z,4.70
2023-09-27T09:11:13.482Z,4.50
2023-09-27T09:13:55.339Z,4.60
2023-09-27T09:16:25.316Z,4.30
2023-09-27T09:18:56.702Z,4.20
2023-09-27T09:21:27.113Z,4.10
2023-09-27T09:23:56.520Z,4.20
2023-09-27T09:29:01.946Z,3.50
2023-09-27T09:31:34.565Z,4.00
2023-09-27T09:34:04.760Z,4.00
2023-09-27T09:36:34.823Z,3.90
2023-09-27T09:39:05.544Z,3.50
2023-09-27T09:41:50.913Z,3.90
2023-09-27T09:44:24.078Z,3.70
2023-09-27T09:46:58.743Z,3.60
2023-09-27T09:49:28.040Z,3.60
2023-09-27T09:51:58.818Z,3.90
2023-09-27T09:54:38.685Z,4.30
2023-09-27T09:57:14.817Z,3.90
2023-09-27T10:00:00.395Z,4.40
2023-09-27T10:02:34.071Z,4.90
2023-09-27T10:05:07.913Z,4.80
2023-09-27T10:07:37.288Z,4.40
2023-09-27T10:10:07.204Z,4.80
2023-09-27T10:12:37.065Z,4.90
2023-09-27T10:15:08.748Z,4.70
2023-09-27T10:17:41.037Z,4.90
2023-09-27T10:20:14.469Z,4.80
2023-09-27T10:22:44.980Z,4.80
2023-09-27T10:25:29.120Z,4.70
2023-09-27T10:28:01.528Z,4.90
2023-09-27T10:30:42.545Z,4.70
2023-09-27T10:33:14.430Z,5.20
2023-09-27T10:35:44.038Z,4.50
2023-09-27T10:38:14.057Z,4.50
2023-09-27T10:40:46.014Z,4.70
2023-09-27T10:43:33.590Z,4.70
2023-09-27T10:46:05.778Z,4.80
2023-09-27T10:48:37.238Z,4.40
2023-09-27T10:51:06.205Z,4.60
2023-09-27T10:58:32.871Z,4.10
2023-09-27T11:01:03.532Z,4.00
2023-09-27T11:03:34.735Z,4.00
2023-09-27T11:06:10.149Z,4.00
2023-09-27T11:08:41.749Z,3.90
2023-09-27T11:11:12.680Z,3.60
2023-09-27T11:13:45.851Z,3.70
2023-09-27T11:16:16.096Z,3.60
2023-09-27T11:18:46.266Z,3.50
2023-09-27T11:21:15.380Z,3.80
2023-09-27T11:23:58.099Z,3.80
2023-09-27T11:26:28.636Z,3.40
2023-09-27T11:28:58.659Z,3.90
2023-09-27T11:31:28.820Z,3.20
2023-09-27T11:34:13.721Z,3.10
2023-09-27T11:36:43.243Z,3.60
2023-09-27T11:39:14.887Z,3.10
2023-09-27T11:41:45.136Z,3.00
2023-09-27T11:44:21.464Z,3.20
2023-09-27T11:46:51.176Z,3.20
2023-09-27T11:51:49.289Z,3.50
2023-09-27T11:54:18.296Z,3.60
2023-09-27T11:56:48.455Z,3.30
2023-09-27T11:59:17.618Z,3.60
2023-09-27T12:01:46.573Z,3.40
2023-09-27T12:04:19.089Z,3.10
2023-09-27T12:06:48.660Z,3.60
2023-09-27T12:09:17.633Z,3.60
2023-09-27T12:11:46.831Z,3.50
2023-09-27T12:14:15.831Z,3.30
2023-09-27T12:16:44.683Z,3.10
2023-09-27T12:19:13.542Z,3.40
2023-09-27T12:21:42.406Z,3.20
2023-09-27T12:24:11.317Z,3.50
2023-09-27T12:26:40.626Z,3.30
2023-09-27T12:29:09.826Z,3.50
2023-09-27T12:31:38.709Z,3.50
2023-09-27T12:34:07.722Z,3.50
2023-09-27T12:36:40.546Z,3.50
2023-09-27T12:39:09.438Z,3.90
2023-09-27T12:41:38.368Z,4.10
2023-09-27T12:44:07.429Z,6.90
2023-09-27T12:46:36.891Z,3.70
2023-09-27T12:49:05.941Z,3.80
2023-09-27T12:51:46.774Z,4.00
2023-09-27T12:54:19.866Z,3.70
2023-09-27T12:59:17.947Z,4.00
2023-09-27T13:01:46.985Z,3.90
2023-09-27T13:04:16.130Z,4.00
2023-09-27T13:06:47.792Z,3.90
2023-09-27T13:09:18.754Z,4.10
2023-09-27T13:14:16.409Z,4.30
2023-09-27T13:16:45.960Z,4.00
2023-09-27T13:19:14.967Z,4.20
2023-09-27T13:21:44.996Z,4.30
2023-09-27T13:24:14.262Z,4.00
2023-09-27T13:26:43.110Z,4.50
2023-09-27T13:29:12.169Z,4.50
2023-09-27T13:31:41.625Z,4.70
2023-09-27T13:34:12.262Z,4.60
2023-09-27T13:36:41.684Z,4.80
2023-09-27T13:39:18.492Z,4.70
2023-09-27T13:41:48.038Z,4.80
2023-09-27T13:44:17.187Z,4.80
2023-09-27T13:46:46.241Z,7.10
2023-09-27T13:49:15.150Z,5.10
2023-09-27T13:51:45.275Z,4.70
2023-09-27T13:54:15.797Z,4.50
2023-09-27T13:56:44.846Z,5.10
2023-09-27T13:59:14.910Z,4.80
2023-09-27T14:01:43.941Z,4.60
2023-09-27T14:04:12.998Z,4.60
2023-09-27T14:06:42.122Z,4.50
2023-09-27T14:09:11.326Z,4.50
2023-09-27T14:11:40.647Z,5.10
2023-09-27T14:14:09.546Z,4.30
2023-09-27T14:16:39.296Z,4.70
2023-09-27T14:19:08.631Z,4.40
2023-09-27T14:21:37.644Z,5.60
2023-09-27T14:24:06.757Z,4.70
2023-09-27T14:26:35.689Z,5.10
2023-09-27T14:29:04.932Z,4.50
2023-09-27T14:31:34.082Z,4.40
2023-09-27T14:34:03.475Z,4.40
2023-09-27T14:36:33.951Z,4.40
2023-09-27T14:39:04.460Z,4.70
2023-09-27T14:41:34.157Z,4.20
2023-09-27T14:44:04.093Z,4.80
2023-09-27T14:46:35.434Z,4.60
2023-09-27T14:49:05.931Z,5.10
2023-09-27T14:51:34.939Z,4.90
2023-09-27T14:54:03.855Z,4.60
2023-09-27T14:56:32.753Z,4.40
2023-09-27T14:59:02.505Z,4.50
2023-09-27T15:01:31.555Z,5.10
2023-09-27T15:04:00.660Z,4.60
2023-09-27T15:06:29.632Z,4.80
2023-09-27T15:08:58.499Z,4.20
2023-09-27T15:11:27.888Z,4.00
2023-09-27T15:13:59.588Z,5.00
2023-09-27T15:16:28.755Z,4.10
2023-09-27T15:18:57.787Z,4.70
2023-09-27T15:21:26.921Z,4.50
2023-09-27T15:23:55.884Z,4.90
2023-09-27T15:26:24.716Z,4.80
2023-09-27T15:28:53.590Z,4.60
2023-09-27T15:31:22.938Z,4.70
2023-09-27T15:33:51.968Z,5.70
2023-09-27T15:36:21.050Z,4.70
2023-09-27T15:38:50.046Z,4.80
2023-09-27T15:41:19.817Z,4.80
2023-09-27T15:43:50.932Z,4.60
2023-09-27T15:46:20.849Z,4.50
2023-09-27T15:48:50.592Z,4.50
2023-09-27T15:51:19.475Z,5.20
2023-09-27T15:53:49.118Z,4.60
2023-09-27T15:56:20.449Z,5.40
2023-09-27T15:58:49.437Z,5.20
2023-09-27T16:01:18.339Z,5.10
2023-09-27T16:03:47.502Z,5.00
2023-09-27T16:06:17.744Z,5.40
2023-09-27T16:08:46.754Z,4.90
2023-09-27T16:11:15.807Z,5.20
2023-09-27T16:13:44.823Z,4.80
2023-09-27T16:16:13.859Z,5.70
2023-09-27T16:26:42.216Z,5.20
2023-09-27T16:29:46.855Z,5.10
2023-09-27T16:32:16.916Z,5.30
2023-09-27T16:34:47.286Z,5.40
2023-09-27T16:37:16.557Z,5.40
2023-09-27T16:39:45.647Z,5.50
2023-09-27T16:42:14.930Z,4.80
2023-09-27T16:44:44.256Z,5.20
2023-09-27T16:47:13.529Z,5.10
2023-09-27T16:49:42.493Z,5.50
2023-09-27T16:52:12.641Z,5.90
2023-09-27T16:54:42.440Z,5.40
2023-09-27T16:57:11.756Z,5.40
2023-09-27T16:59:40.813Z,6.10
2023-09-27T17:02:09.907Z,5.70
2023-09-27T17:04:55.474Z,5.50
2023-09-27T17:07:24.620Z,5.80
2023-09-27T17:12:20.539Z,6.20
2023-09-27T17:14:49.654Z,6.10
2023-09-27T17:17:18.769Z,5.70
2023-09-27T17:19:48.261Z,6.30
2023-09-27T17:22:17.417Z,5.90
2023-09-27T17:24:47.297Z,6.00
2023-09-27T17:27:16.480Z,6.30
2023-09-27T17:29:45.673Z,5.50
2023-09-27T17:32:14.648Z,6.20
2023-09-27T17:34:43.750Z,5.70
2023-09-27T17:39:39.859Z,5.90
2023-09-27T17:42:09.972Z,5.90
2023-09-27T17:44:40.644Z,5.90
2023-09-27T17:49:42.457Z,5.80
2023-09-27T17:52:11.921Z,6.40
2023-09-27T17:54:38.738Z,6.30
2023-09-27T17:57:09.137Z,6.10
2023-09-27T17:59:38.684Z,6.10
2023-09-27T18:02:07.649Z,6.40
2023-09-27T18:07:03.172Z,6.10
2023-09-27T18:09:33.041Z,7.00
2023-09-27T18:12:05.608Z,6.90
2023-09-27T18:14:35.384Z,6.60
2023-09-27T18:17:04.307Z,6.80
2023-09-27T18:19:33.532Z,6.80
2023-09-27T18:22:06.541Z,6.60
2023-09-27T18:24:35.572Z,6.50
2023-09-27T18:32:19.229Z,7.20
2023-09-27T18:34:48.414Z,6.50
2023-09-27T18:37:15.231Z,7.10
2023-09-27T18:39:48.664Z,6.70
2023-09-27T18:42:17.682Z,6.60
2023-09-27T18:44:48.525Z,7.30
2023-09-27T18:47:38.681Z,7.10
2023-09-27T18:50:08.288Z,7.20
2023-09-27T18:52:35.744Z,7.20
2023-09-27T18:55:05.912Z,7.20
2023-09-27T19:00:01.578Z,7.40
2023-09-27T19:02:31.877Z,8.20
2023-09-27T19:05:01.105Z,7.40
2023-09-27T19:07:30.675Z,7.90
2023-09-27T19:09:59.820Z,8.30
2023-09-27T19:12:26.530Z,7.90
2023-09-27T19:14:59.294Z,7.90
2023-09-27T19:20:14.373Z,7.70
2023-09-27T19:22:42.582Z,7.70
2023-09-27T19:25:16.520Z,8.30
2023-09-27T19:27:45.638Z,8.70
2023-09-27T19:30:16.185Z,9.10
2023-09-27T19:32:46.301Z,8.70
2023-09-27T19:35:15.933Z,8.20
2023-09-27T19:40:16.737Z,8.70
2023-09-27T19:42:49.789Z,8.20
2023-09-27T19:45:21.394Z,8.50
2023-09-27T19:47:50.701Z,9.10
2023-09-27T19:50:20.079Z,8.40
2023-09-27T19:52:49.798Z,8.50
2023-09-27T19:55:19.823Z,8.50
2023-09-27T20:02:41.242Z,8.40
2023-09-27T20:05:11.343Z,7.80
2023-09-27T20:07:46.998Z,8.50
2023-09-27T20:10:16.697Z,8.60
2023-09-27T20:12:45.794Z,9.00
2023-09-27T20:15:14.901Z,8.80
2023-09-27T20:17:44.058Z,9.20
2023-09-27T20:20:12.928Z,8.90
2023-09-27T20:22:41.837Z,8.70
2023-09-27T20:25:11.793Z,8.90
2023-09-27T20:27:40.913Z,9.10
2023-09-27T20:30:10.768Z,8.50
2023-09-27T20:32:39.836Z,8.40
2023-09-27T20:35:08.899Z,8.60
2023-09-27T20:37:38.034Z,9.30
2023-09-27T20:40:07.420Z,9.30
2023-09-27T20:42:36.841Z,8.30
2023-09-27T20:45:05.961Z,9.00
2023-09-27T20:47:38.104Z,8.60
2023-09-27T20:50:07.156Z,8.50
2023-09-27T20:52:36.133Z,9.00
2023-09-27T20:55:06.243Z,9.40
2023-09-27T20:57:35.721Z,8.30
2023-09-27T21:00:05.284Z,10.60
2023-09-27T21:02:35.283Z,11.10
2023-09-27T21:05:07.224Z,13.10
2023-09-27T21:07:36.832Z,13.00
2023-09-27T21:10:05.798Z,13.10
2023-09-27T21:12:34.817Z,14.10
2023-09-27T21:15:03.921Z,14.40
2023-09-27T21:17:32.914Z,14.40
2023-09-27T21:20:02.127Z,16.10
2023-09-27T21:22:31.044Z,15.60
2023-09-27T21:24:59.853Z,13.60
2023-09-27T21:27:29.326Z,13.20
2023-09-27T21:29:58.160Z,12.70
2023-09-27T21:32:27.084Z,10.40
2023-09-27T21:34:56.036Z,9.60
2023-09-27T21:37:24.909Z,9.90
2023-09-27T21:39:53.870Z,10.30
2023-09-27T21:42:22.706Z,9.40
2023-09-27T21:44:51.589Z,8.90
2023-09-27T21:47:20.388Z,8.90
2023-09-27T21:49:49.238Z,10.20
2023-09-27T21:52:18.765Z,11.00
2023-09-27T21:54:47.632Z,10.70
2023-09-27T21:57:16.475Z,10.00
2023-09-27T21:59:45.325Z,10.00
2023-09-27T22:02:14.142Z,10.10
2023-09-27T22:04:43.017Z,10.60
2023-09-27T22:07:12.930Z,9.50
2023-09-27T22:09:42.298Z,9.10
2023-09-27T22:12:11.372Z,9.20
2023-09-27T22:14:48.280Z,8.60
2023-09-27T22:17:17.527Z,8.70
2023-09-27T22:19:46.392Z,8.70
2023-09-27T22:22:21.789Z,8.80
2023-09-27T22:24:53.759Z,8.20
2023-09-27T22:27:27.792Z,8.90
2023-09-27T22:29:57.426Z,8.00
2023-09-27T22:32:26.328Z,8.50
2023-09-27T22:34:56.557Z,9.60
2023-09-27T22:37:25.511Z,8.10
2023-09-27T22:40:08.342Z,9.20
2023-09-27T22:42:43.141Z,8.50
2023-09-27T22:45:29.159Z,8.80
2023-09-27T22:47:59.600Z,8.00
2023-09-27T22:50:31.765Z,8.70
2023-09-27T22:53:05.676Z,8.90
2023-09-27T22:55:35.350Z,8.80
2023-09-27T22:58:04.373Z,8.90
2023-09-27T23:00:33.202Z,8.50
2023-09-27T23:03:02.081Z,9.20
2023-09-27T23:05:34.130Z,9.50
2023-09-27T23:08:10.283Z,9.20
2023-09-27T23:10:39.887Z,8.30
2023-09-27T23:13:27.816Z,9.10
2023-09-27T23:15:57.170Z,9.50
2023-09-27T23:18:30.413Z,10.90
2023-09-27T23:21:00.023Z,9.50
2023-09-27T23:23:37.631Z,9.10
2023-09-27T23:26:11.446Z,9.10
2023-09-27T23:28:40.575Z,9.10
2023-09-27T23:31:10.305Z,10.50
2023-09-27T23:33:43.776Z,10.80
2023-09-27T23:36:27.387Z,10.70
2023-09-27T23:38:59.684Z,9.80
2023-09-27T23:41:32.036Z,9.50
2023-09-27T23:44:01.816Z,9.70
2023-09-27T23:46:31.013Z,9.90
2023-09-27T23:49:03.541Z,9.60
2023-09-27T23:51:33.086Z,9.60
2023-09-27T23:54:04.092Z,10.00
2023-09-27T23:56:33.112Z,9.00
2023-09-27T23:59:09.550Z,10.00
